^^
Datos históricos de la estación: Murcia-Puente Tocinos
Diario Informe para Diciembre 12, 2019 Unidades:  Ingés    Métrico   Ambas
Diario Semanal Mensual Anual
  Máxima: Mínima: Promedio:
Temperatura: 60.6 °F 50.4 °F 55.4 °F
Punto de rocio: 41.5 °F 35.2 °F 37.6 °F
Humedad: 63% 39% 52%
Velocidad viento: 13.5mph 0mph 5.8mph
Racha viento: 25.3mph - -
Viento- - OSO
Presión: 30.2 in 29.9 in -
Precipitación: 0 in    
 
 
Tabla de datos para Diciembre 12, 2019
Hora Temperatura Punto de rocio Presión Viento Velocidad viento Racha viento Humedad Intensidad lluvia(por hora) Nubes
00:04 55.2 °F 37.9 °F 30.2 in ONO 12.2 mph 22 mph 52% 0 in
00:09 55.2 °F 37.9 °F 30.2 in ONO 11.2 mph 21.9 mph 52% 0 in
00:14 55.2 °F 38.1 °F 30.2 in ONO 11.3 mph 22 mph 52.3% 0 in
00:19 55 °F 38.3 °F 30.2 in ONO 11.4 mph 17.3 mph 53% 0 in
00:24 54.9 °F 38.1 °F 30.2 in ONO 10.7 mph 19 mph 53% 0 in
00:29 54.9 °F 37.9 °F 30.2 in ONO 10.2 mph 19 mph 53% 0 in
00:34 54.7 °F 37.9 °F 30.2 in ONO 10.2 mph 17.3 mph 53% 0 in
00:39 54.7 °F 37.8 °F 30.2 in ONO 10.2 mph 17 mph 53% 0 in
00:44 54.3 °F 37.8 °F 30.2 in Oeste 9.6 mph 15 mph 53.7% 0 in
00:49 54.1 °F 37.8 °F 30.2 in ONO 9.2 mph 15.2 mph 54% 0 in
00:54 54 °F 37.8 °F 30.2 in ONO 8.9 mph 15 mph 54% 0 in
00:59 54 °F 37.6 °F 30.2 in ONO 8.7 mph 17.3 mph 54% 0 in
01:04 53.8 °F 37.6 °F 30.2 in ONO 9.9 mph 17.3 mph 54% 0 in
01:09 53.8 °F 37.6 °F 30.2 in ONO 10.7 mph 19 mph 54% 0 in
01:14 54 °F 37.8 °F 30.2 in ONO 11.1 mph 19 mph 54% 0 in
01:19 54 °F 37.8 °F 30.2 in ONO 11.4 mph 16 mph 54% 0 in
01:24 54 °F 37.6 °F 30.2 in Oeste 10.4 mph 15 mph 54% 0 in
01:29 53.8 °F 37.4 °F 30.2 in ONO 9.7 mph 14.5 mph 54% 0 in
01:34 53.4 °F 37.2 °F 30.2 in Oeste 8.8 mph 15 mph 54% 0 in
01:39 53.4 °F 37.2 °F 30.2 in Oeste 8.1 mph 12.7 mph 54.2% 0 in
01:44 53.2 °F 37.4 °F 30.2 in OSO 7.4 mph 13 mph 55% 0 in
01:49 53.1 °F 37.2 °F 30.2 in OSO 6.9 mph 9 mph 55% 0 in
01:54 52.9 °F 37 °F 30.2 in Oeste 5.4 mph 7 mph 55% 0 in
01:59 52.9 °F 37.4 °F 30.2 in Oeste 4.3 mph 6 mph 55.6% 0 in
02:04 52.9 °F 37.2 °F 30.2 in NO 3.2 mph 5 mph 55.4% 0 in
02:09 52.7 °F 37.4 °F 30.2 in NO 2.4 mph 5 mph 55.9% 0 in
02:14 52.7 °F 37 °F 30.2 in NO 2.7 mph 6.2 mph 55.1% 0 in
02:19 52.7 °F 37 °F 30.2 in NNO 2.9 mph 6.2 mph 55.4% 0 in
02:24 52.7 °F 36.7 °F 30.2 in NO 3.5 mph 13.5 mph 54.4% 0 in
02:29 53.6 °F 36.3 °F 30.2 in Oeste 4 mph 20.8 mph 52% 0 in
02:34 54.7 °F 36.3 °F 30.2 in ONO 7.4 mph 25.3 mph 49.8% 0 in
02:39 54.9 °F 36 °F 30.2 in Oeste 9.7 mph 25 mph 49.2% 0 in
02:44 54.7 °F 36 °F 30.2 in Oeste 7.7 mph 15.2 mph 49% 0 in
02:49 54.7 °F 36 °F 30.2 in Oeste 6.2 mph 15 mph 49% 0 in
02:54 54.7 °F 35.6 °F 30.2 in OSO 6.2 mph 15 mph 48.5% 0 in
02:59 55 °F 35.4 °F 30.2 in OSO 6.2 mph 15 mph 47.3% 0 in
03:04 55 °F 35.6 °F 30.2 in SO 6.3 mph 13 mph 47.6% 0 in
03:09 54.9 °F 35.6 °F 30.2 in OSO 6.4 mph 12 mph 48.1% 0 in
03:14 54.7 °F 35.8 °F 30.2 in Oeste 5.5 mph 15.9 mph 48.8% 0 in
03:19 54.7 °F 35.4 °F 30.2 in OSO 4.7 mph 18.5 mph 48.1% 0 in
03:24 55 °F 35.6 °F 30.2 in Oeste 6 mph 19 mph 48% 0 in
03:29 54.9 °F 35.8 °F 30.2 in SSO 6.9 mph 14 mph 48.3% 0 in
03:34 54.1 °F 35.6 °F 30.2 in Sur 6 mph 8.1 mph 49.3% 0 in
03:39 54 °F 35.8 °F 30.2 in SSO 5.4 mph 8 mph 50.1% 0 in
03:44 53.4 °F 35.8 °F 30.2 in OSO 4.3 mph 6 mph 51.2% 0 in
03:49 53.1 °F 36 °F 30.2 in OSO 3.6 mph 7.4 mph 51.8% 0 in
03:54 53.1 °F 36 °F 30.2 in Oeste 3.2 mph 7 mph 52% 0 in
03:59 53.1 °F 36 °F 30.2 in Oeste 2.9 mph 6 mph 52% 0 in
04:04 53.1 °F 35.8 °F 30.2 in ONO 3 mph 6 mph 52% 0 in
04:09 52.9 °F 35.8 °F 30.2 in Oeste 3.1 mph 16.1 mph 52% 0 in
04:14 53.2 °F 36 °F 30.2 in Oeste 4.4 mph 16 mph 52% 0 in
04:19 53.2 °F 36.1 °F 30.2 in Oeste 5.4 mph 21.5 mph 51.9% 0 in
04:24 53.8 °F 35.8 °F 30.2 in Oeste 7.3 mph 22 mph 50.4% 0 in
04:29 54.1 °F 36 °F 30.2 in Oeste 8.7 mph 22 mph 50% 0 in
04:34 54 °F 36 °F 30.2 in Oeste 9.8 mph 19 mph 50.4% 0 in
04:39 53.8 °F 36.1 °F 30.2 in OSO 10.7 mph 15 mph 51% 0 in
04:44 53.6 °F 36 °F 30.2 in Oeste 7.1 mph 8 mph 51% 0 in
04:49 53.4 °F 35.8 °F 30.2 in SO 4.7 mph 9.7 mph 51% 0 in
04:54 53.6 °F 35.8 °F 30.2 in SSO 4.5 mph 10 mph 51% 0 in
04:59 53.6 °F 36 °F 30.2 in OSO 4.3 mph 9 mph 51% 0 in
05:04 53.6 °F 36 °F 30.2 in OSO 4.8 mph 10.4 mph 51% 0 in
05:09 53.8 °F 36.1 °F 30.2 in OSO 5.2 mph 10 mph 51% 0 in
05:14 53.6 °F 36 °F 30.2 in Oeste 4.9 mph 7.4 mph 51% 0 in
05:19 53.4 °F 35.8 °F 30.2 in OSO 4.7 mph 7 mph 51% 0 in
05:24 53.4 °F 35.8 °F 30.2 in SO 4.1 mph 8.5 mph 51% 0 in
05:29 53.4 °F 35.8 °F 30.2 in SO 3.6 mph 9 mph 51.1% 0 in
05:34 53.1 °F 36 °F 30.2 in Sur 4 mph 7 mph 52% 0 in
05:39 52.5 °F 36 °F 30.2 in Sur 4.3 mph 6 mph 53.1% 0 in
05:44 52.2 °F 36 °F 30.2 in SSO 3.6 mph 5.8 mph 54% 0 in
05:49 51.8 °F 36.1 °F 30.2 in SO 3.1 mph 6 mph 54.9% 0 in
05:54 51.8 °F 36.1 °F 30.2 in SO 3.1 mph 6 mph 55% 0 in
05:59 51.8 °F 36.1 °F 30.2 in SO 3.1 mph 9.2 mph 54.9% 0 in
06:04 52.2 °F 36 °F 30.2 in OSO 3.8 mph 9 mph 54% 0 in
06:09 52.3 °F 36.1 °F 30.2 in Oeste 4.3 mph 8.1 mph 54% 0 in
06:14 52.5 °F 36.3 °F 30.2 in Oeste 4.5 mph 9.2 mph 54% 0 in
06:19 52.7 °F 36.1 °F 30.2 in Oeste 4.7 mph 14 mph 53.3% 0 in
06:24 52.9 °F 36.1 °F 30.2 in Oeste 5.6 mph 14 mph 52.8% 0 in
06:29 53.1 °F 36 °F 30.2 in OSO 6.2 mph 11.5 mph 52.1% 0 in
06:34 53.1 °F 36.3 °F 30.2 in SSO 5.7 mph 12 mph 52.7% 0 in
06:39 52.9 °F 36.3 °F 30.2 in SSE 5.2 mph 7.4 mph 53.3% 0 in
06:44 51.8 °F 36.1 °F 30.1 in Sur 4.7 mph 7.6 mph 54.9% 0 in
06:49 50.9 °F 36.1 °F 30.1 in SSO 4.3 mph 8.1 mph 56.7% 0 in
06:54 50.5 °F 36.1 °F 30.2 in SSO 4.8 mph 8 mph 57.3% 0 in
06:59 50.5 °F 36.3 °F 30.2 in SSO 5.2 mph 7 mph 58% 0 in
07:04 50.5 °F 36.3 °F 30.2 in SSO 4.9 mph 7 mph 58% 0 in
07:09 50.5 °F 36.3 °F 30.2 in SSO 4.7 mph 7 mph 58% 0 in
07:14 50.5 °F 36.3 °F 30.1 in SO 4.3 mph 6.9 mph 58% 0 in
07:19 50.5 °F 36.3 °F 30.1 in SO 4 mph 7 mph 58% 0 in
07:24 50.5 °F 36.3 °F 30.1 in SO 4 mph 6 mph 58% 0 in
07:29 50.5 °F 36.3 °F 30.1 in SO 4 mph 6.2 mph 58% 0 in
07:34 50.5 °F 36.5 °F 30.1 in SO 3.8 mph 6.9 mph 58.5% 0 in
07:39 50.4 °F 36.7 °F 30.1 in SO 3.6 mph 7 mph 59% 0 in
07:44 50.4 °F 36.7 °F 30.1 in SO 4 mph 7 mph 59% 0 in
07:49 50.4 °F 36.7 °F 30.1 in SSO 4.3 mph 7.4 mph 59% 0 in
07:54 50.4 °F 36.7 °F 30.1 in SSO 4.3 mph 8.1 mph 59% 0 in
07:59 50.4 °F 36.7 °F 30.1 in SSO 4.3 mph 8.5 mph 59% 0 in
08:04 50.4 °F 36.7 °F 30.1 in OSO 5 mph 9 mph 59% 0 in
08:09 50.4 °F 36.3 °F 30.1 in SO 5.4 mph 7 mph 58.4% 0 in
08:14 50.4 °F 36.3 °F 30.1 in SSO 4 mph 6.9 mph 58.2% 0 in
08:19 50.5 °F 36.3 °F 30.1 in SSO 3.1 mph 7 mph 58% 0 in
08:24 50.5 °F 36.5 °F 30.1 in SSO 3.6 mph 6.9 mph 58% 0 in
08:29 50.7 °F 36.5 °F 30.1 in Sur 4 mph 7 mph 58% 0 in
08:34 50.7 °F 36.5 °F 30.1 in SO 4 mph 6 mph 58% 0 in
08:39 50.7 °F 36.5 °F 30.1 in SO 4 mph 6.9 mph 58% 0 in
08:44 50.7 °F 36.5 °F 30.1 in SO 4.2 mph 7 mph 58% 0 in
08:49 50.7 °F 36.5 °F 30.1 in OSO 4.3 mph 7 mph 58% 0 in
08:54 50.7 °F 36.7 °F 30.2 in SO 4.2 mph 7 mph 58.6% 0 in
08:59 50.7 °F 36.9 °F 30.2 in OSO 4 mph 6.9 mph 59% 0 in
09:04 50.5 °F 36.7 °F 30.2 in SO 4.2 mph 8.1 mph 59% 0 in
09:09 50.7 °F 36.9 °F 30.2 in SO 4.3 mph 8.1 mph 58.8% 0 in
09:14 51.1 °F 36.7 °F 30.2 in SO 4.8 mph 8.7 mph 57.7% 0 in
09:19 51.4 °F 36.7 °F 30.2 in SSO 5.2 mph 9 mph 57% 0 in
09:24 51.4 °F 36.9 °F 30.2 in SSO 5.2 mph 9 mph 57% 0 in
09:29 51.6 °F 36.9 °F 30.1 in SSO 5.2 mph 8.5 mph 57% 0 in
09:34 51.6 °F 36.7 °F 30.1 in SO 4.9 mph 9.2 mph 56.7% 0 in
09:39 51.6 °F 36.5 °F 30.1 in SO 4.7 mph 9.2 mph 56.1% 0 in
09:44 51.8 °F 36.5 °F 30.1 in SO 5.1 mph 11.2 mph 56% 0 in
09:49 51.8 °F 36.3 °F 30.1 in SO 5.4 mph 12 mph 55.4% 0 in
09:54 51.8 °F 36.3 °F 30.2 in SO 6 mph 12 mph 55.4% 0 in
09:59 52.2 °F 36.5 °F 30.2 in SO 6.4 mph 11.5 mph 55.1% 0 in
10:04 52.3 °F 36.1 °F 30.2 in SO 6.1 mph 12 mph 53.6% 0 in
10:09 52.9 °F 36 °F 30.2 in SSO 5.9 mph 12 mph 52.5% 0 in
10:14 53.2 °F 36.1 °F 30.1 in SSO 5.9 mph 9 mph 52% 0 in
10:19 53.6 °F 36.3 °F 30.1 in SSO 5.9 mph 8.1 mph 51.8% 0 in
10:24 53.8 °F 36.1 °F 30.2 in SSO 5 mph 8.1 mph 51.2% 0 in
10:29 53.8 °F 36.5 °F 30.2 in SSO 4.3 mph 8.1 mph 51.6% 0 in
10:34 54 °F 36.7 °F 30.2 in SSO 4.8 mph 9.2 mph 51.9% 0 in
10:39 54 °F 36.9 °F 30.2 in Sur 5.2 mph 9 mph 52.3% 0 in
10:44 54 °F 37 °F 30.2 in SSE 4.5 mph 7 mph 52.4% 0 in
10:49 54.1 °F 36.9 °F 30.2 in SSO 4 mph 6 mph 51.8% 0 in
10:54 54.3 °F 36.9 °F 30.2 in SO 3.4 mph 5 mph 51.5% 0 in
10:59 54.5 °F 36.9 °F 30.2 in SSO 2.9 mph 5.2 mph 51.2% 0 in
11:04 54.9 °F 37 °F 30.2 in SSO 3 mph 6.9 mph 51% 0 in
11:09 54.9 °F 37 °F 30.2 in SSO 3.1 mph 7 mph 51% 0 in
11:14 55 °F 37.2 °F 30.2 in SO 3.4 mph 6 mph 51.1% 0 in
11:19 55.2 °F 37 °F 30.2 in SO 3.6 mph 6.2 mph 50.3% 0 in
11:24 55.6 °F 36.9 °F 30.2 in SO 3.6 mph 6 mph 49.4% 0 in
11:29 55.8 °F 36.9 °F 30.1 in SO 3.6 mph 6 mph 48.8% 0 in
11:34 55.9 °F 37 °F 30.1 in SSO 3.6 mph 6.9 mph 49% 0 in
11:39 56.1 °F 37.2 °F 30.1 in SO 3.6 mph 7 mph 49% 0 in
11:44 56.1 °F 37.2 °F 30.1 in OSO 3.6 mph 6.9 mph 48.9% 0 in
11:49 56.3 °F 37.4 °F 30.1 in SO 3.6 mph 7 mph 49% 0 in
11:54 56.3 °F 37.4 °F 30.1 in SO 4 mph 8.5 mph 49% 0 in
11:59 56.3 °F 37.8 °F 30.1 in SO 4.3 mph 9 mph 49.5% 0 in
12:04 56.7 °F 37.6 °F 30.1 in SSO 4.1 mph 8.1 mph 48.9% 0 in
12:09 56.7 °F 37.6 °F 30.1 in SSO 4 mph 8.7 mph 48.6% 0 in
12:14 56.8 °F 37.4 °F 30.1 in SSO 4.8 mph 9.2 mph 48.2% 0 in
12:19 57 °F 37.4 °F 30.1 in SO 5.4 mph 10.4 mph 47.9% 0 in
12:24 57 °F 37.2 °F 30.1 in OSO 5.3 mph 10 mph 47.3% 0 in
12:29 57 °F 37.4 °F 30.1 in Sur 5.2 mph 9.2 mph 47.6% 0 in
12:34 57 °F 37.6 °F 30.1 in Sur 5.2 mph 9 mph 48% 0 in
12:39 57.2 °F 37.6 °F 30.1 in SSE 5.2 mph 8.5 mph 47.8% 0 in
12:44 57.6 °F 37.8 °F 30.1 in Sur 5.2 mph 9 mph 47.4% 0 in
12:49 57.7 °F 37.6 °F 30.1 in SSE 5.2 mph 9.2 mph 47% 0 in
12:54 58.1 °F 37.9 °F 30.1 in SSO 4.9 mph 12.5 mph 46.8% 0 in
12:59 58.6 °F 37 °F 30.1 in OSO 4.7 mph 15.9 mph 44.2% 0 in
13:04 59.4 °F 36.7 °F 30.1 in OSO 6.9 mph 16.8 mph 42.8% 0 in
13:09 59.5 °F 36.7 °F 30.1 in Oeste 8.5 mph 17 mph 42.4% 0 in
13:14 59.5 °F 36.3 °F 30.1 in ONO 8.3 mph 13 mph 42% 0 in
13:19 59.4 °F 36.1 °F 30.1 in Oeste 8.1 mph 13.5 mph 42% 0 in
13:24 59.5 °F 36.1 °F 30.1 in Oeste 7.4 mph 14 mph 41.6% 0 in
13:29 59.9 °F 35.8 °F 30.1 in ONO 6.9 mph 15 mph 40.5% 0 in
13:34 60.1 °F 35.6 °F 30.1 in Oeste 6.9 mph 17.3 mph 39.8% 0 in
13:39 60.1 °F 35.6 °F 30.1 in ONO 6.9 mph 17.3 mph 39.9% 0 in
13:44 60.3 °F 35.8 °F 30.1 in Oeste 8.3 mph 17 mph 40% 0 in
13:49 60.4 °F 35.4 °F 30.1 in Oeste 9.2 mph 15 mph 39.3% 0 in
13:54 60.4 °F 35.2 °F 30.1 in Oeste 8.6 mph 15 mph 39% 0 in
13:59 60.4 °F 36 °F 30.1 in Oeste 8.1 mph 15 mph 39.8% 0 in
14:04 60.6 °F 35.6 °F 30.1 in Oeste 8.1 mph 18.4 mph 39.3% 0 in
14:09 60.6 °F 35.8 °F 30.1 in Oeste 8.1 mph 21.9 mph 39.6% 0 in
14:14 60.4 °F 36 °F 30.1 in ONO 10.7 mph 22 mph 40% 0 in
14:19 60.3 °F 36.3 °F 30.1 in Oeste 12.5 mph 21 mph 40.8% 0 in
14:24 60.3 °F 36.3 °F 30.1 in Oeste 11.1 mph 18 mph 41.1% 0 in
14:29 60.3 °F 36.5 °F 30 in Oeste 10 mph 16.1 mph 41.1% 0 in
14:34 60.3 °F 37 °F 30 in Oeste 9.1 mph 16.1 mph 42% 0 in
14:39 60.3 °F 37 °F 30 in ONO 8.5 mph 20.7 mph 42% 0 in
14:44 60.3 °F 37.6 °F 30 in Oeste 9.2 mph 21 mph 42.8% 0 in
14:49 60.3 °F 37.8 °F 30 in Oeste 9.7 mph 18.1 mph 43% 0 in
14:54 60.3 °F 37.4 °F 30 in Oeste 8.8 mph 18.4 mph 42.5% 0 in
14:59 60.3 °F 37.6 °F 30 in Oeste 8.1 mph 19 mph 42.8% 0 in
15:04 60.3 °F 37.8 °F 30 in Oeste 9.4 mph 21.5 mph 43.1% 0 in
15:09 59.9 °F 37.8 °F 30 in Oeste 10.2 mph 23.7 mph 43.5% 0 in
15:14 59.9 °F 37.6 °F 30 in Oeste 11.8 mph 24.2 mph 43.6% 0 in
15:19 59.7 °F 37.6 °F 30 in Oeste 13 mph 24 mph 43.5% 0 in
15:24 59.7 °F 37.8 °F 30 in Oeste 13 mph 23 mph 44% 0 in
15:29 59.4 °F 37.4 °F 30 in ONO 13 mph 24.6 mph 44% 0 in
15:34 59.2 °F 37.8 °F 30 in ONO 13.3 mph 25 mph 45% 0 in
15:39 59.2 °F 37.8 °F 30 in ONO 13.5 mph 22 mph 45% 0 in
15:44 59 °F 37.8 °F 30 in ONO 12.8 mph 22 mph 45.2% 0 in
15:49 58.8 °F 38.1 °F 30 in ONO 12.3 mph 23 mph 46% 0 in
15:54 58.8 °F 38.1 °F 30 in ONO 13 mph 23 mph 46% 0 in
15:59 58.6 °F 37.9 °F 30 in ONO 13.5 mph 23 mph 46% 0 in
16:04 58.6 °F 38.3 °F 30 in ONO 12.3 mph 25.3 mph 46.7% 0 in
16:09 58.6 °F 38.5 °F 30 in ONO 11.4 mph 25.3 mph 47% 0 in
16:14 58.6 °F 38.5 °F 30 in ONO 11.3 mph 25 mph 47% 0 in
16:19 58.6 °F 38.5 °F 30 in ONO 11.2 mph 18.5 mph 47% 0 in
16:24 58.6 °F 38.5 °F 30 in ONO 11.2 mph 19 mph 47% 0 in
16:29 58.6 °F 38.5 °F 30 in ONO 11.2 mph 19 mph 47% 0 in
16:34 58.8 °F 38.7 °F 30 in ONO 10.9 mph 19.6 mph 47% 0 in
16:39 58.8 °F 38.7 °F 30 in ONO 10.7 mph 20 mph 47% 0 in
16:44 58.8 °F 38.7 °F 30 in ONO 10.3 mph 16.1 mph 47% 0 in
16:49 58.8 °F 38.7 °F 30 in ONO 10 mph 16 mph 47% 0 in
16:54 58.8 °F 38.7 °F 30 in ONO 9.5 mph 15 mph 47% 0 in
16:59 58.8 °F 38.7 °F 30 in ONO 9.2 mph 14 mph 47% 0 in
17:04 58.8 °F 38.7 °F 30 in ONO 8.3 mph 13 mph 47% 0 in
17:09 58.8 °F 38.7 °F 30 in ONO 7.6 mph 11.8 mph 47% 0 in
17:14 58.8 °F 38.7 °F 30 in ONO 7.5 mph 12 mph 47% 0 in
17:19 58.8 °F 38.7 °F 30 in ONO 7.4 mph 11 mph 47% 0 in
17:24 58.8 °F 38.7 °F 30 in ONO 6.8 mph 10.4 mph 47% 0 in
17:29 58.8 °F 38.7 °F 30 in ONO 6.4 mph 10.7 mph 47% 0 in
17:34 58.8 °F 38.3 °F 30 in ONO 6.4 mph 11 mph 46.6% 0 in
17:39 58.8 °F 38.1 °F 30 in Oeste 6.4 mph 15 mph 46% 0 in
17:44 59.2 °F 38.3 °F 30 in Oeste 6.7 mph 15 mph 46% 0 in
17:49 59 °F 38.3 °F 30 in OSO 6.9 mph 10.7 mph 46% 0 in
17:54 58.8 °F 38.3 °F 30 in SO 5.4 mph 11 mph 46.2% 0 in
17:59 58.6 °F 38.8 °F 30 in SO 4.3 mph 7 mph 47.7% 0 in
18:04 58.5 °F 38.8 °F 30 in Oeste 3.9 mph 6 mph 48% 0 in
18:09 58.3 °F 38.7 °F 30 in Oeste 3.6 mph 6.9 mph 48% 0 in
18:14 58.3 °F 38.7 °F 30 in ONO 3.6 mph 7 mph 48% 0 in
18:19 58.3 °F 38.7 °F 30 in Oeste 3.6 mph 10.4 mph 48% 0 in
18:24 58.3 °F 39 °F 30 in Oeste 4.2 mph 10 mph 48.6% 0 in
18:29 57.9 °F 38.8 °F 30 in OSO 4.7 mph 6.2 mph 49% 0 in
18:34 57.9 °F 38.8 °F 30 in OSO 4 mph 6.9 mph 49% 0 in
18:39 57.9 °F 38.8 °F 30 in SO 3.6 mph 7 mph 49% 0 in
18:44 57.9 °F 38.8 °F 30 in SSO 3.6 mph 5.2 mph 49% 0 in
18:49 57.7 °F 39.2 °F 30 in Sur 3.6 mph 8.5 mph 49.8% 0 in
18:54 57.6 °F 39.6 °F 30 in Sur 4.5 mph 9 mph 51% 0 in
18:59 57.4 °F 39.7 °F 30 in Sur 5.2 mph 8 mph 52% 0 in
19:04 57 °F 39.9 °F 30 in Sur 4.7 mph 6.4 mph 52.8% 0 in
19:09 56.8 °F 40.1 °F 30 in Sur 4.3 mph 7 mph 53.5% 0 in
19:14 56.5 °F 40.1 °F 30 in Sur 4.5 mph 7 mph 54% 0 in
19:19 56.5 °F 39.9 °F 30 in Sur 4.7 mph 7 mph 54% 0 in
19:24 56.5 °F 39.9 °F 30 in SSO 4.5 mph 7 mph 54% 0 in
19:29 56.5 °F 39.9 °F 30 in SSO 4.3 mph 7 mph 54% 0 in
19:34 56.7 °F 39.9 °F 30 in SO 4.2 mph 6.2 mph 53.4% 0 in
19:39 56.8 °F 39.7 °F 30 in SSO 4 mph 6 mph 53% 0 in
19:44 56.8 °F 39.7 °F 30 in SSO 3.8 mph 7.4 mph 52.8% 0 in
19:49 57 °F 39.6 °F 30 in SSO 3.6 mph 7.6 mph 52% 0 in
19:54 57 °F 39.6 °F 30 in SO 4.2 mph 8.1 mph 51.8% 0 in
19:59 57 °F 39 °F 29.9 in SSO 4.7 mph 10.7 mph 50.9% 0 in
20:04 57 °F 38.8 °F 29.9 in SSO 5.2 mph 11.5 mph 50.5% 0 in
20:09 57 °F 38.5 °F 29.9 in SO 5.4 mph 12.3 mph 50% 0 in
20:14 57 °F 38.7 °F 29.9 in SO 6 mph 13.8 mph 50% 0 in
20:19 57.2 °F 38.7 °F 29.9 in SSO 6.4 mph 14 mph 50% 0 in
20:24 57.2 °F 39 °F 29.9 in SO 6.7 mph 13 mph 50.6% 0 in
20:29 57 °F 39.2 °F 29.9 in SSO 6.9 mph 12.7 mph 51% 0 in
20:34 57 °F 39 °F 29.9 in SO 6.9 mph 13 mph 51% 0 in
20:39 57 °F 39 °F 29.9 in SO 6.9 mph 13.7 mph 51% 0 in
20:44 57 °F 39.6 °F 29.9 in SO 6.6 mph 14 mph 51.8% 0 in
20:49 56.8 °F 39.4 °F 29.9 in SO 6.4 mph 10 mph 52% 0 in
20:54 56.7 °F 39.6 °F 29.9 in SSO 5.8 mph 10.7 mph 52.5% 0 in
20:59 56.7 °F 39.7 °F 29.9 in Sur 5.4 mph 11 mph 53% 0 in
21:04 56.5 °F 39.6 °F 29.9 in SO 4.7 mph 7 mph 53.1% 0 in
21:09 56.5 °F 39.9 °F 29.9 in SO 4.3 mph 6 mph 54% 0 in
21:14 56.3 °F 39.9 °F 29.9 in OSO 3.2 mph 5 mph 54% 0 in
21:19 56.1 °F 39.7 °F 29.9 in Oeste 2.4 mph 5.8 mph 54% 0 in
21:24 56.1 °F 39.9 °F 29.9 in OSO 2.4 mph 6 mph 54.3% 0 in
21:29 55.9 °F 39.9 °F 29.9 in OSO 2.4 mph 4 mph 55% 0 in
21:34 55.9 °F 39.9 °F 29.9 in SO 1.8 mph 4.6 mph 55% 0 in
21:39 55.9 °F 39.7 °F 29.9 in SSO 1.4 mph 5.2 mph 54.6% 0 in
21:44 55.9 °F 39.9 °F 29.9 in SSO 1.7 mph 5 mph 55% 0 in
21:49 55.9 °F 40.3 °F 29.9 in SSO 2 mph 2.9 mph 55.6% 0 in
21:54 55.8 °F 40.3 °F 29.9 in SSO 1.7 mph 3.5 mph 56% 0 in
21:59 55.6 °F 40.1 °F 29.9 in SO 1.4 mph 5.2 mph 56% 0 in
22:04 55.6 °F 40.1 °F 29.9 in OSO 1.6 mph 5 mph 56% 0 in
22:09 55.6 °F 40.1 °F 29.9 in SO 1.8 mph 5.8 mph 56% 0 in
22:14 55.6 °F 40.1 °F 29.9 in OSO 1.9 mph 6 mph 56% 0 in
22:19 55.6 °F 40.5 °F 29.9 in ONO 2 mph 5 mph 56.6% 0 in
22:24 55.4 °F 40.6 °F 29.9 in North 1.9 mph 4 mph 57.7% 0 in
22:29 54.9 °F 40.5 °F 29.9 in NE 1.8 mph 4 mph 58.2% 0 in
22:34 54.7 °F 40.6 °F 29.9 in NE 1.8 mph 3 mph 59% 0 in
22:39 54.3 °F 40.8 °F 29.9 in NE 1.8 mph 1 mph 59.9% 0 in
22:44 54.3 °F 40.6 °F 29.9 in NE 0.7 mph   59.9% 0 in
22:49 54.3 °F 40.3 °F 29.9 in Calm   2.3 mph 59% 0 in
22:54 54.3 °F 40.3 °F 29.9 in Calm   3.1 mph 59% 0 in
22:59 54.3 °F 40.5 °F 29.9 in Calm   3.5 mph 59% 0 in
23:04 54.7 °F 40.6 °F 29.9 in Sur 1.2 mph 3.6 mph 59% 0 in
23:09 54.7 °F 41 °F 29.9 in SSE 2 mph 4.7 mph 59.8% 0 in
23:14 54.7 °F 41.2 °F 29.9 in SSE 2.5 mph 5 mph 60.1% 0 in
23:19 54.7 °F 41.4 °F 29.9 in SE 2.9 mph 4.6 mph 61% 0 in
23:24 54.3 °F 41.2 °F 29.9 in ESE 2.4 mph 5 mph 61% 0 in
23:29 54.1 °F 41.2 °F 29.9 in ESE 2 mph 5 mph 61.6% 0 in
23:34 54 °F 41.2 °F 29.9 in ESE 2 mph 4 mph 61.9% 0 in
23:39 53.8 °F 41 °F 29.9 in ESE 2 mph 3 mph 62% 0 in
23:44 53.6 °F 41 °F 29.9 in ESE 0.9 mph 4.6 mph 62% 0 in
23:49 53.6 °F 41.2 °F 29.9 in Calm   5 mph 62.5% 0 in
23:54 53.8 °F 41.4 °F 29.9 in SO 1.8 mph 5.9 mph 63% 0 in
23:59 54 °F 41.5 °F 29.9 in SO 3.1 mph 7.4 mph 63% 0 in
Murcia-Puente Tocinos, España
Compliments of Weather Underground - 3 mb

La estación de MeteoMurcia.com, publica sus datos en los siguientes proyectos:

Weather Underground PWS IMURCIAP2 Meteoclimatic www.awekas.at

W3Counter
Web Analytics